createdAt,value
2018-01-11T00:00:30.495Z,47.3
2018-01-11T00:01:32.121Z,47.5
2018-01-11T00:02:33.448Z,47.6
2018-01-11T00:03:34.493Z,47.4
2018-01-11T00:04:36.114Z,47.3
2018-01-11T00:05:37.735Z,47.5
2018-01-11T00:06:39.334Z,47.3
2018-01-11T00:07:40.677Z,47.6
2018-01-11T00:08:42.576Z,47.6
2018-01-11T00:09:43.917Z,47.5
2018-01-11T00:10:45.236Z,47.3
2018-01-11T00:11:47.134Z,47.6
2018-01-11T00:12:48.472Z,47.7
2018-01-11T00:13:50.071Z,47.7
2018-01-11T00:14:51.689Z,47.6
2018-01-11T00:15:53.316Z,47.5
2018-01-11T00:16:55.219Z,47.3
2018-01-11T00:17:56.842Z,47.6
2018-01-11T00:18:58.461Z,47.6
2018-01-11T00:20:00.364Z,47.4
2018-01-11T00:21:02.264Z,47.5
2018-01-11T00:22:04.161Z,47.6
2018-01-11T00:23:05.758Z,47.6
2018-01-11T00:24:07.098Z,47.6
2018-01-11T00:25:08.699Z,47.6
2018-01-11T00:26:10.317Z,47.6
2018-01-11T00:27:12.215Z,47.5
2018-01-11T00:28:13.833Z,47.3
2018-01-11T00:29:15.454Z,47.6
2018-01-11T00:30:16.800Z,47.3
2018-01-11T00:31:18.119Z,47.3
2018-01-11T00:32:19.722Z,47.6
2018-01-11T00:33:21.065Z,47.6
2018-01-11T00:34:22.685Z,47.6
2018-01-11T00:35:24.284Z,47.6
2018-01-11T00:36:25.902Z,47.5
2018-01-11T00:37:27.525Z,47.5
2018-01-11T00:38:29.137Z,47.5
2018-01-11T00:39:30.748Z,47.5
2018-01-11T00:40:32.647Z,47.7
2018-01-11T00:41:34.266Z,47.6
2018-01-11T00:42:36.164Z,47.6
2018-01-11T00:43:37.784Z,47.6
2018-01-11T00:44:39.684Z,47.2
2018-01-11T00:45:41.281Z,47.4
2018-01-11T00:46:42.880Z,47.6
2018-01-11T00:47:44.499Z,47.4
2018-01-11T00:48:46.116Z,47.5
2018-01-11T00:49:48.014Z,47.6
2018-01-11T00:50:49.634Z,47.6
2018-01-11T00:51:51.534Z,47.7
2018-01-11T00:52:53.146Z,47.6
2018-01-11T00:53:54.765Z,47.4
2018-01-11T00:54:56.108Z,47.2
2018-01-11T00:55:57.707Z,47.6
2018-01-11T00:56:59.605Z,47.5
2018-01-11T00:58:00.652Z,47.6
2018-01-11T00:59:02.269Z,47.6
2018-01-11T01:00:04.166Z,47.4
2018-01-11T01:01:05.486Z,47.2
2018-01-11T01:02:07.384Z,47.6
2018-01-11T01:03:08.430Z,47.7
2018-01-11T01:04:10.054Z,47.5
2018-01-11T01:05:11.673Z,47.4
2018-01-11T01:06:13.017Z,47.2
2018-01-11T01:07:14.642Z,47.5
2018-01-11T01:08:16.540Z,47.5
2018-01-11T01:09:18.133Z,47.5
2018-01-11T01:10:19.457Z,47.5
2018-01-11T01:11:20.496Z,47.3
2018-01-11T01:12:22.392Z,47.3
2018-01-11T01:13:23.734Z,47.5
2018-01-11T01:14:25.354Z,47.7
2018-01-11T01:15:26.121Z,47.6
2018-01-11T01:16:27.465Z,47.7
2018-01-11T01:17:29.087Z,47.9
2018-01-11T01:18:31.002Z,47.7
2018-01-11T01:19:32.626Z,47.5
2018-01-11T01:20:34.246Z,47.2
2018-01-11T01:21:35.863Z,47.2
2018-01-11T01:22:37.761Z,47.5
2018-01-11T01:23:39.358Z,47.4
2018-01-11T01:24:40.980Z,47.3
2018-01-11T01:25:42.601Z,47.3
2018-01-11T01:26:44.494Z,47.9
2018-01-11T01:27:46.405Z,47.3
2018-01-11T01:28:48.005Z,47.5
2018-01-11T01:29:49.601Z,47.6
2018-01-11T01:30:51.233Z,47.7
2018-01-11T01:31:52.579Z,47.9
2018-01-11T01:32:54.200Z,47.2
2018-01-11T01:33:56.095Z,47.8
2018-01-11T01:34:57.692Z,48
2018-01-11T01:35:59.308Z,47.2
2018-01-11T01:37:01.206Z,47.9
2018-01-11T01:38:03.101Z,47.8
2018-01-11T01:39:05.001Z,47.9
2018-01-11T01:40:06.315Z,47.8
2018-01-11T01:41:07.652Z,47.7
2018-01-11T01:42:09.271Z,47.7
2018-01-11T01:43:10.886Z,47.6
2018-01-11T01:44:12.481Z,47.6
2018-01-11T01:45:14.377Z,47.4
2018-01-11T01:46:16.277Z,47.9
2018-01-11T01:47:17.895Z,47.5
2018-01-11T01:48:19.213Z,47.6
2018-01-11T01:49:21.108Z,47.9
2018-01-11T01:50:22.728Z,48
2018-01-11T01:51:24.623Z,47.9
2018-01-11T01:52:25.960Z,47.9
2018-01-11T01:53:27.284Z,47.4
2018-01-11T01:54:28.906Z,47.7
2018-01-11T01:55:30.525Z,47.6
2018-01-11T01:56:32.420Z,47.2
2018-01-11T01:57:33.463Z,47.3
2018-01-11T01:58:35.061Z,47.7
2018-01-11T01:59:36.658Z,48
2018-01-11T02:00:38.552Z,47.7
2018-01-11T02:01:40.168Z,47.8
2018-01-11T02:02:42.063Z,47.7
2018-01-11T02:03:43.681Z,47.6
2018-01-11T02:04:45.303Z,47.8
2018-01-11T02:05:47.200Z,47.9
2018-01-11T02:06:48.815Z,48
2018-01-11T02:07:50.708Z,47.8
2018-01-11T02:08:52.327Z,47.8
2018-01-11T02:09:54.221Z,47.2
2018-01-11T02:10:56.114Z,47.2
2018-01-11T02:11:57.712Z,47.7
2018-01-11T02:12:59.328Z,47.8
2018-01-11T02:14:00.391Z,47.9
2018-01-11T02:15:02.013Z,47.8
2018-01-11T02:16:03.355Z,47.8
2018-01-11T02:17:05.258Z,47.7
2018-01-11T02:18:06.598Z,47.8
2018-01-11T02:19:08.491Z,47.7
2018-01-11T02:20:10.108Z,47.6
2018-01-11T02:21:11.707Z,48
2018-01-11T02:22:13.304Z,47.2
2018-01-11T02:23:15.200Z,47.8
2018-01-11T02:24:17.093Z,47.8
2018-01-11T02:25:18.690Z,47.7
2018-01-11T02:26:20.306Z,47.2
2018-01-11T02:27:21.624Z,47.4
2018-01-11T02:28:22.986Z,47.2
2018-01-11T02:29:24.875Z,47.9
2018-01-11T02:30:26.509Z,47.7
2018-01-11T02:31:28.403Z,48
2018-01-11T02:32:30.304Z,47.8
2018-01-11T02:33:32.198Z,47.8
2018-01-11T02:34:34.092Z,47.8
2018-01-11T02:35:35.985Z,48
2018-01-11T02:36:37.608Z,47.8
2018-01-11T02:37:39.229Z,47.6
2018-01-11T02:38:41.123Z,47.9
2018-01-11T02:39:42.739Z,47.2
2018-01-11T02:40:44.353Z,47.8
2018-01-11T02:41:45.970Z,47.1
2018-01-11T02:42:47.588Z,47.8
2018-01-11T02:43:48.934Z,47.9
2018-01-11T02:44:50.551Z,47.7
2018-01-11T02:45:52.442Z,47.8
2018-01-11T02:46:54.337Z,48
2018-01-11T02:47:55.952Z,47.7
2018-01-11T02:48:56.994Z,47.7
2018-01-11T02:49:58.612Z,47.3
2018-01-11T02:51:00.507Z,47.8
2018-01-11T02:52:02.103Z,47.8
2018-01-11T02:53:03.708Z,47.1
2018-01-11T02:54:05.328Z,47.8
2018-01-11T02:55:06.950Z,47.7
2018-01-11T02:56:08.841Z,47.9
2018-01-11T02:57:10.438Z,47.8
2018-01-11T02:58:12.060Z,47.8
2018-01-11T02:59:13.397Z,47.1
2018-01-11T03:00:15.292Z,47.8
2018-01-11T03:01:16.901Z,47.8
2018-01-11T03:02:18.567Z,47.9
2018-01-11T03:03:20.462Z,47.9
2018-01-11T03:04:22.356Z,47.9
2018-01-11T03:05:24.251Z,48
2018-01-11T03:06:26.147Z,47.8
2018-01-11T03:07:27.786Z,47.6
2018-01-11T03:08:29.099Z,47.9
2018-01-11T03:09:30.437Z,47.8
2018-01-11T03:10:31.787Z,47.1
2018-01-11T03:11:33.403Z,47.8
2018-01-11T03:12:35.021Z,47.9
2018-01-11T03:13:36.914Z,47.1
2018-01-11T03:14:38.808Z,47.9
2018-01-11T03:15:40.403Z,47.1
2018-01-11T03:16:42.024Z,47.9
2018-01-11T03:17:43.083Z,47.4
2018-01-11T03:18:44.400Z,47.4
2018-01-11T03:19:45.444Z,47.7
2018-01-11T03:20:47.059Z,47.9
2018-01-11T03:21:48.674Z,47.9
2018-01-11T03:22:50.304Z,47.7
2018-01-11T03:23:51.915Z,47.4
2018-01-11T03:24:53.809Z,47.7
2018-01-11T03:25:55.707Z,47.6
2018-01-11T03:26:57.020Z,47.5
2018-01-11T03:27:58.338Z,47.7
2018-01-11T03:29:00.233Z,47.5
2018-01-11T03:30:01.577Z,47.6
2018-01-11T03:31:03.473Z,47.8
2018-01-11T03:32:04.236Z,47.4
2018-01-11T03:33:06.131Z,47.5
2018-01-11T03:34:08.028Z,47.6
2018-01-11T03:35:09.920Z,47.5
2018-01-11T03:36:11.852Z,47.6
2018-01-11T03:37:13.750Z,47.8
2018-01-11T03:38:15.649Z,47.5
2018-01-11T03:39:17.544Z,47.6
2018-01-11T03:40:19.495Z,47.5
2018-01-11T03:41:20.814Z,47.5
2018-01-11T03:42:22.148Z,47.7
2018-01-11T03:43:23.766Z,47.8
2018-01-11T03:44:25.385Z,47.4
2018-01-11T03:45:26.727Z,47.5
2018-01-11T03:46:28.344Z,47.8
2018-01-11T03:47:29.963Z,47.6
2018-01-11T03:48:31.559Z,47.8
2018-01-11T03:49:32.897Z,47.4
2018-01-11T03:50:34.494Z,47.7
2018-01-11T03:51:35.809Z,47.7
2018-01-11T03:52:37.707Z,47.8
2018-01-11T03:53:39.324Z,47.5
2018-01-11T03:54:40.943Z,47.9
2018-01-11T03:55:42.838Z,47.8
2018-01-11T03:56:44.455Z,47.7
2018-01-11T03:57:46.051Z,47.8
2018-01-11T03:58:47.946Z,47.8
2018-01-11T03:59:49.287Z,47.8
2018-01-11T04:00:50.884Z,47.7
2018-01-11T04:01:51.923Z,47.7
2018-01-11T04:02:53.818Z,47.8
2018-01-11T04:03:55.714Z,47.6
2018-01-11T04:04:57.052Z,47.4
2018-01-11T04:05:58.670Z,47.6
2018-01-11T04:07:00.289Z,47.8
2018-01-11T04:08:02.184Z,48.2
2018-01-11T04:09:03.802Z,47.3
2018-01-11T04:10:05.699Z,47.7
2018-01-11T04:11:06.465Z,47.8
2018-01-11T04:12:07.783Z,47.7
2018-01-11T04:13:08.823Z,47.7
2018-01-11T04:14:10.717Z,47.4
2018-01-11T04:15:12.037Z,48.1
2018-01-11T04:16:13.932Z,47.7
2018-01-11T04:17:15.528Z,47.7
2018-01-11T04:18:17.122Z,47.7
2018-01-11T04:19:19.018Z,47.5
2018-01-11T04:20:20.357Z,47.7
2018-01-11T04:21:21.404Z,47.4
2018-01-11T04:22:23.021Z,47.3
2018-01-11T04:23:24.639Z,47.8
2018-01-11T04:24:26.533Z,47.4
2018-01-11T04:25:27.874Z,47.4
2018-01-11T04:26:29.769Z,47.8
2018-01-11T04:27:31.661Z,47.9
2018-01-11T04:28:32.989Z,47.9
2018-01-11T04:29:34.339Z,48.2
2018-01-11T04:30:35.976Z,47.9
2018-01-11T04:31:37.595Z,47.6
2018-01-11T04:32:39.495Z,48
2018-01-11T04:33:41.415Z,47.9
2018-01-11T04:34:43.032Z,47.9
2018-01-11T04:35:44.350Z,47.7
2018-01-11T04:36:45.978Z,48
2018-01-11T04:37:47.873Z,47.9
2018-01-11T04:38:48.909Z,47.5
2018-01-11T04:39:50.808Z,47.8
2018-01-11T04:40:52.129Z,47.9
2018-01-11T04:41:53.467Z,47.9
2018-01-11T04:42:55.362Z,48
2018-01-11T04:43:56.958Z,47.8
2018-01-11T04:44:58.576Z,47.5
2018-01-11T04:46:00.470Z,47.8
2018-01-11T04:47:02.387Z,47.5
2018-01-11T04:48:03.738Z,47.9
2018-01-11T04:49:05.370Z,48
2018-01-11T04:50:06.697Z,47.9
2018-01-11T04:51:08.330Z,47.8
2018-01-11T04:52:09.954Z,47.9
2018-01-11T04:53:11.842Z,47.6
2018-01-11T04:54:13.458Z,47.8
2018-01-11T04:55:15.081Z,47.5
2018-01-11T04:56:16.696Z,47.7
2018-01-11T04:57:18.038Z,47.5
2018-01-11T04:58:19.933Z,47.9
2018-01-11T04:59:21.274Z,47.8
2018-01-11T05:00:23.167Z,47.8
2018-01-11T05:01:24.788Z,47.9
2018-01-11T05:02:26.681Z,48
2018-01-11T05:03:28.299Z,47.4
2018-01-11T05:04:29.920Z,47.9
2018-01-11T05:05:31.238Z,47.9
2018-01-11T05:06:32.579Z,48
2018-01-11T05:07:34.227Z,47.9
2018-01-11T05:08:35.843Z,48
2018-01-11T05:09:37.161Z,48
2018-01-11T05:10:38.780Z,47.9
2018-01-11T05:11:40.397Z,47.8
2018-01-11T05:12:42.293Z,47.3
2018-01-11T05:13:43.912Z,47.9
2018-01-11T05:14:45.807Z,47.8
2018-01-11T05:15:47.422Z,47.3
2018-01-11T05:16:49.039Z,47.1
2018-01-11T05:17:50.934Z,47.8
2018-01-11T05:18:52.551Z,47.8
2018-01-11T05:19:53.867Z,47.8
2018-01-11T05:20:55.795Z,47.7
2018-01-11T05:21:57.684Z,47.8
2018-01-11T05:22:59.578Z,47.8
2018-01-11T05:24:01.179Z,47.1
2018-01-11T05:25:02.794Z,47.2
2018-01-11T05:26:04.706Z,47.8
2018-01-11T05:27:06.603Z,47.7
2018-01-11T05:28:08.221Z,47.8
2018-01-11T05:29:09.538Z,47.7
2018-01-11T05:30:11.433Z,47.7
2018-01-11T05:31:12.495Z,47.8
2018-01-11T05:32:14.113Z,47.5
2018-01-11T05:33:16.009Z,47.2
2018-01-11T05:34:17.904Z,47.6
2018-01-11T05:35:19.800Z,47.2
2018-01-11T05:36:21.417Z,47.5
2018-01-11T05:37:22.758Z,47.4
2018-01-11T05:38:24.100Z,47.6
2018-01-11T05:39:25.438Z,47.4
2018-01-11T05:40:27.057Z,47.6
2018-01-11T05:41:28.950Z,47.5
2018-01-11T05:42:30.548Z,47.7
2018-01-11T05:43:31.889Z,47.6
2018-01-11T05:44:33.510Z,47.6
2018-01-11T05:45:34.838Z,47.4
2018-01-11T05:46:36.731Z,47.6
2018-01-11T05:47:38.626Z,47.7
2018-01-11T05:48:40.534Z,47.5
2018-01-11T05:49:42.131Z,47.5
2018-01-11T05:50:44.029Z,47.5
2018-01-11T05:51:45.069Z,47.5
2018-01-11T05:52:46.963Z,47.4
2018-01-11T05:53:48.580Z,47.5
2018-01-11T05:54:50.475Z,47.3
2018-01-11T05:55:52.369Z,47.4
2018-01-11T05:56:54.267Z,47.4
2018-01-11T05:57:55.583Z,47.4
2018-01-11T05:58:57.479Z,47.4
2018-01-11T05:59:59.376Z,47.5
2018-01-11T06:01:01.272Z,47.3
2018-01-11T06:02:03.176Z,47.4
2018-01-11T06:03:05.066Z,47.5
2018-01-11T06:04:06.699Z,47.3
2018-01-11T06:05:07.763Z,47.5
2018-01-11T06:06:09.371Z,47.4
2018-01-11T06:07:10.968Z,47.6
2018-01-11T06:08:12.588Z,47.4
2018-01-11T06:09:14.205Z,47.4
2018-01-11T06:10:16.100Z,47.2
2018-01-11T06:11:17.704Z,47.4
2018-01-11T06:12:18.770Z,47.4
2018-01-11T06:13:20.665Z,47.4
2018-01-11T06:14:22.285Z,47.4
2018-01-11T06:15:23.625Z,47.5
2018-01-11T06:16:25.244Z,47.6
2018-01-11T06:17:27.138Z,47.6
2018-01-11T06:18:28.479Z,47.4
2018-01-11T06:19:30.375Z,47.6
2018-01-11T06:20:31.991Z,47.6
2018-01-11T06:21:33.307Z,47.4
2018-01-11T06:22:34.698Z,47.5
2018-01-11T06:23:36.321Z,47.4
2018-01-11T06:24:37.661Z,47.4
2018-01-11T06:25:39.309Z,47.5
2018-01-11T06:26:41.231Z,47.4
2018-01-11T06:27:43.124Z,47.5
2018-01-11T06:28:44.744Z,47.6
2018-01-11T06:29:46.646Z,47.5
2018-01-11T06:30:47.980Z,47.4
2018-01-11T06:31:49.318Z,47.4
2018-01-11T06:32:51.216Z,47.4
2018-01-11T06:33:52.838Z,47.6
2018-01-11T06:34:54.185Z,47.5
2018-01-11T06:35:55.780Z,47.6
2018-01-11T06:36:57.675Z,47
2018-01-11T06:37:59.573Z,47.4
2018-01-11T06:39:00.620Z,47.4
2018-01-11T06:40:02.515Z,47.6
2018-01-11T06:41:04.135Z,47.4
2018-01-11T06:42:05.454Z,47.5
2018-01-11T06:43:07.053Z,47.4
2018-01-11T06:44:08.417Z,47.6
2018-01-11T06:45:10.031Z,47.6
2018-01-11T06:46:11.925Z,47.5
2018-01-11T06:47:13.546Z,47.5
2018-01-11T06:48:15.163Z,47.4
2018-01-11T06:49:16.503Z,47.4
2018-01-11T06:50:17.554Z,47.4
2018-01-11T06:51:19.154Z,47.5
2018-01-11T06:52:20.215Z,47.7
2018-01-11T06:53:21.812Z,47.5
2018-01-11T06:54:23.429Z,47.6
2018-01-11T06:55:24.752Z,47.4
2018-01-11T06:56:26.382Z,47.5
2018-01-11T06:57:28.371Z,47.5
2018-01-11T06:58:30.354Z,47.4
2018-01-11T06:59:32.254Z,47.5
2018-01-11T07:00:33.893Z,47.3
2018-01-11T07:01:35.811Z,47.6
2018-01-11T07:02:37.437Z,47.6
2018-01-11T07:03:39.034Z,47.5
2018-01-11T07:04:40.928Z,47.5
2018-01-11T07:05:42.249Z,47.5
2018-01-11T07:06:44.144Z,47.5
2018-01-11T07:07:45.486Z,47.2
2018-01-11T07:08:47.105Z,47.6
2018-01-11T07:09:48.723Z,47.6
2018-01-11T07:10:50.619Z,47.7
2018-01-11T07:11:52.237Z,47.4
2018-01-11T07:12:54.135Z,47.9
2018-01-11T07:13:55.453Z,48
2018-01-11T07:14:57.351Z,47.2
2018-01-11T07:15:58.678Z,47.8
2018-01-11T07:17:00.312Z,47.1
2018-01-11T07:18:01.932Z,47.8
2018-01-11T07:19:03.546Z,47.8
2018-01-11T07:20:05.193Z,47.6
2018-01-11T07:21:07.096Z,47.9
2018-01-11T07:22:08.707Z,47.2
2018-01-11T07:23:09.752Z,47.8
2018-01-11T07:24:11.658Z,47.9
2018-01-11T07:25:12.978Z,48
2018-01-11T07:26:14.575Z,47.6
2018-01-11T07:27:16.190Z,47.8
2018-01-11T07:28:17.795Z,47.5
2018-01-11T07:29:19.415Z,47.8
2018-01-11T07:30:20.739Z,47.8
2018-01-11T07:31:22.633Z,47.5
2018-01-11T07:32:24.254Z,47.6
2018-01-11T07:33:25.598Z,47.9
2018-01-11T07:34:27.535Z,47.7
2018-01-11T07:35:29.152Z,47.5
2018-01-11T07:36:30.773Z,47.6
2018-01-11T07:37:32.392Z,47.6
2018-01-11T07:38:34.290Z,47.7
2018-01-11T07:39:36.195Z,47.7
2018-01-11T07:40:37.511Z,47.7
2018-01-11T07:41:38.881Z,47.5
2018-01-11T07:42:40.817Z,47.8
2018-01-11T07:43:42.720Z,47.6
2018-01-11T07:44:43.767Z,47.9
2018-01-11T07:45:45.667Z,47.9
2018-01-11T07:46:46.996Z,48.1
2018-01-11T07:47:48.321Z,47.7
2018-01-11T07:48:49.927Z,47.8
2018-01-11T07:49:51.830Z,47.8
2018-01-11T07:50:52.886Z,48
2018-01-11T07:51:54.241Z,47.9
2018-01-11T07:52:55.871Z,47.9
2018-01-11T07:53:57.770Z,47.7
2018-01-11T07:54:59.669Z,47.8
2018-01-11T07:56:01.274Z,47.4
2018-01-11T07:57:03.174Z,47.9
2018-01-11T07:58:04.796Z,47.9
2018-01-11T07:59:06.441Z,47.7
2018-01-11T08:00:08.338Z,47.6
2018-01-11T08:01:10.232Z,47.9
2018-01-11T08:02:11.555Z,47.9
2018-01-11T08:03:13.451Z,48.1
2018-01-11T08:04:15.117Z,47.6
2018-01-11T08:05:16.445Z,48
2018-01-11T08:06:18.067Z,48
2018-01-11T08:07:19.964Z,47.6
2018-01-11T08:08:21.308Z,48
2018-01-11T08:09:22.930Z,48.1
2018-01-11T08:10:24.552Z,48.3
2018-01-11T08:11:26.171Z,47.8
2018-01-11T08:12:28.070Z,47.8
2018-01-11T08:13:29.972Z,48.1
2018-01-11T08:14:31.044Z,47.9
2018-01-11T08:15:32.654Z,47.9
2018-01-11T08:16:34.271Z,48
2018-01-11T08:17:36.163Z,48.2
2018-01-11T08:18:37.484Z,47.9
2018-01-11T08:19:39.385Z,48.1
2018-01-11T08:20:41.008Z,47.8
2018-01-11T08:21:42.372Z,47.8
2018-01-11T08:22:43.994Z,48.3
2018-01-11T08:23:45.617Z,48.2
2018-01-11T08:24:47.247Z,47.7
2018-01-11T08:25:48.292Z,47.8
2018-01-11T08:26:49.908Z,47.7
2018-01-11T08:27:51.805Z,48.4
2018-01-11T08:28:53.702Z,48.2
2018-01-11T08:29:55.023Z,48.4
2018-01-11T08:30:56.363Z,48.3
2018-01-11T08:31:57.982Z,48.1
2018-01-11T08:32:59.327Z,48
2018-01-11T08:34:00.402Z,48.1
2018-01-11T08:35:01.986Z,48.2
2018-01-11T08:36:03.920Z,48.3
2018-01-11T08:37:05.562Z,48.2
2018-01-11T08:38:06.612Z,47.8
2018-01-11T08:39:07.931Z,48.2
2018-01-11T08:40:09.549Z,47.9
2018-01-11T08:41:11.214Z,48.3
2018-01-11T08:42:12.854Z,48.3
2018-01-11T08:43:14.471Z,48.2
2018-01-11T08:44:16.373Z,48.1
2018-01-11T08:45:17.992Z,48.2
2018-01-11T08:46:19.614Z,48.4
2018-01-11T08:47:21.239Z,47.9
2018-01-11T08:48:22.859Z,48.2
2018-01-11T08:49:24.199Z,48.6
2018-01-11T08:50:25.521Z,48.4
2018-01-11T08:51:27.138Z,47.9
2018-01-11T08:52:28.455Z,48.3
2018-01-11T08:53:30.077Z,48.3
2018-01-11T08:54:31.698Z,48.2
2018-01-11T08:55:32.743Z,48.2
2018-01-11T08:56:34.639Z,48.6
2018-01-11T08:57:36.238Z,48.3
2018-01-11T08:58:37.558Z,48.1
2018-01-11T08:59:39.458Z,48.7
2018-01-11T09:00:41.354Z,48.3
2018-01-11T09:01:42.681Z,48.4
2018-01-11T09:02:44.301Z,48.3
2018-01-11T09:03:45.921Z,48.6
2018-01-11T09:04:47.243Z,48.6
2018-01-11T09:05:48.290Z,48.9
2018-01-11T09:06:49.632Z,48.4
2018-01-11T09:07:51.534Z,48.5
2018-01-11T09:08:53.203Z,48.5
2018-01-11T09:09:54.798Z,48.6
2018-01-11T09:10:55.869Z,48.6
2018-01-11T09:11:57.763Z,48.6
2018-01-11T09:12:59.389Z,48.8
2018-01-11T09:14:01.290Z,48.6
2018-01-11T09:15:02.635Z,48.4
2018-01-11T09:16:03.683Z,48.6
2018-01-11T09:17:04.752Z,48.6
2018-01-11T09:18:06.370Z,48.6
2018-01-11T09:19:07.734Z,48.5
2018-01-11T09:20:09.628Z,48.4
2018-01-11T09:21:11.225Z,48.4
2018-01-11T09:22:13.129Z,48.4
2018-01-11T09:23:14.465Z,48.5
2018-01-11T09:24:16.363Z,48.6
2018-01-11T09:25:17.983Z,48.5
2018-01-11T09:26:19.047Z,48.5
2018-01-11T09:27:20.666Z,48.7
2018-01-11T09:28:21.708Z,48.6
2018-01-11T09:29:23.359Z,48.7
2018-01-11T09:30:25.259Z,48.6
2018-01-11T09:31:26.597Z,48.6
2018-01-11T09:32:28.218Z,48.6
2018-01-11T09:33:29.840Z,48.6
2018-01-11T09:34:31.182Z,48.9
2018-01-11T09:35:32.545Z,48.7
2018-01-11T09:36:34.182Z,48.6
2018-01-11T09:37:36.082Z,48.5
2018-01-11T09:38:37.576Z,48.9
2018-01-11T09:39:39.312Z,48.9
2018-01-11T09:40:41.064Z,48.7
2018-01-11T09:41:42.407Z,48.7
2018-01-11T09:42:44.005Z,48.5
2018-01-11T09:43:45.621Z,48.6
2018-01-11T09:44:47.522Z,48.9
2018-01-11T09:45:49.418Z,48.7
2018-01-11T09:46:51.040Z,48.6
2018-01-11T09:47:52.362Z,49
2018-01-11T09:48:54.013Z,48.6
2018-01-11T09:49:55.898Z,49.2
2018-01-11T09:50:57.216Z,48.9
2018-01-11T09:51:58.834Z,48.6
2018-01-11T09:53:00.731Z,48.9
2018-01-11T09:54:01.772Z,48.6
2018-01-11T09:55:03.392Z,48.6
2018-01-11T09:56:04.739Z,48.6
2018-01-11T09:57:06.059Z,48.8
2018-01-11T09:58:07.965Z,48.7
2018-01-11T09:59:09.629Z,48.7
2018-01-11T10:00:11.251Z,48.7
2018-01-11T10:01:13.145Z,49.2
2018-01-11T10:02:14.468Z,48.7
2018-01-11T10:03:16.081Z,48.6
2018-01-11T10:04:17.703Z,48.7
2018-01-11T10:05:19.601Z,48.9
2018-01-11T10:06:20.945Z,48.6
2018-01-11T10:07:22.544Z,48.6
2018-01-11T10:08:24.445Z,48.8
2018-01-11T10:09:26.344Z,48.7
2018-01-11T10:10:27.666Z,49.1
2018-01-11T10:11:29.005Z,48.8
2018-01-11T10:12:30.931Z,48.5
2018-01-11T10:13:32.828Z,48.6
2018-01-11T10:14:34.450Z,48.7
2018-01-11T10:15:36.073Z,48.6
2018-01-11T10:16:37.693Z,48.6
2018-01-11T10:17:39.590Z,48.7
2018-01-11T10:18:41.258Z,48.7
2018-01-11T10:19:43.158Z,48.8
2018-01-11T10:20:44.782Z,48.5
2018-01-11T10:21:46.405Z,48.8
2018-01-11T10:22:48.300Z,48.8
2018-01-11T10:23:49.921Z,48.7
2018-01-11T10:24:51.544Z,48.7
2018-01-11T10:25:53.445Z,48.9
2018-01-11T10:26:55.064Z,48.7
2018-01-11T10:27:56.407Z,48.7
2018-01-11T10:28:58.005Z,49
2018-01-11T10:29:59.901Z,48.8
2018-01-11T10:31:01.797Z,48.9
2018-01-11T10:32:03.401Z,48.8
2018-01-11T10:33:05.021Z,48.8
2018-01-11T10:34:06.923Z,48.6
2018-01-11T10:35:08.819Z,48.9
2018-01-11T10:36:09.866Z,48.7
2018-01-11T10:37:11.208Z,48.7
2018-01-11T10:38:12.537Z,48.7
2018-01-11T10:39:13.893Z,48.4
2018-01-11T10:40:15.516Z,48.4
2018-01-11T10:41:17.411Z,48.6
2018-01-11T10:42:18.754Z,48.7
2018-01-11T10:43:20.378Z,49
2018-01-11T10:44:22.278Z,48.9
2018-01-11T10:45:23.899Z,48.9
2018-01-11T10:46:25.496Z,48.5
2018-01-11T10:47:27.395Z,48.5
2018-01-11T10:48:29.290Z,48.8
2018-01-11T10:49:30.634Z,48.8
2018-01-11T10:50:32.248Z,48.6
2018-01-11T10:51:33.598Z,49
2018-01-11T10:52:35.217Z,48.5
2018-01-11T10:53:36.833Z,48.4
2018-01-11T10:54:38.156Z,49
2018-01-11T10:55:39.778Z,48.7
2018-01-11T10:56:41.399Z,48.9
2018-01-11T10:57:42.443Z,49.1
2018-01-11T10:58:44.061Z,49
2018-01-11T10:59:45.447Z,48.8
2018-01-11T11:00:46.791Z,49.3
2018-01-11T11:01:47.855Z,49
2018-01-11T11:02:49.473Z,49
2018-01-11T11:03:51.372Z,48.8
2018-01-11T11:04:52.991Z,48.7
2018-01-11T11:05:54.889Z,48.7
2018-01-11T11:06:56.783Z,48.8
2018-01-11T11:07:58.683Z,48.7
2018-01-11T11:08:59.997Z,48.5
2018-01-11T11:10:01.620Z,48.8
2018-01-11T11:11:03.247Z,48.7
2018-01-11T11:12:04.595Z,49
2018-01-11T11:13:05.928Z,48.9
2018-01-11T11:14:06.965Z,49
2018-01-11T11:15:08.565Z,48.8
2018-01-11T11:16:10.165Z,49.3
2018-01-11T11:17:12.068Z,48.9
2018-01-11T11:18:13.683Z,48.7
2018-01-11T11:19:15.285Z,48.8
2018-01-11T11:20:17.181Z,48.9
2018-01-11T11:21:18.805Z,49.1
2018-01-11T11:22:19.845Z,49
2018-01-11T11:23:21.464Z,48.9
2018-01-11T11:24:22.834Z,48.9
2018-01-11T11:25:24.451Z,48.8
2018-01-11T11:26:26.070Z,48.8
2018-01-11T11:27:27.667Z,48.7
2018-01-11T11:28:28.990Z,48.6
2018-01-11T11:29:30.584Z,48.5
2018-01-11T11:30:31.911Z,49.3
2018-01-11T11:31:33.547Z,49.2
2018-01-11T11:32:35.158Z,49.1
2018-01-11T11:33:36.826Z,48.8
2018-01-11T11:34:38.172Z,48.8
2018-01-11T11:35:40.072Z,48.9
2018-01-11T11:36:41.396Z,48.7
2018-01-11T11:37:42.716Z,48.7
2018-01-11T11:38:44.347Z,49.5
2018-01-11T11:39:45.980Z,48.7
2018-01-11T11:40:47.324Z,48.7
2018-01-11T11:41:48.095Z,49
2018-01-11T11:42:49.140Z,49
2018-01-11T11:43:50.480Z,49.1
2018-01-11T11:44:52.109Z,49.2
2018-01-11T11:45:53.731Z,49.2
2018-01-11T11:46:55.628Z,49.1
2018-01-11T11:47:56.988Z,49
2018-01-11T11:48:58.636Z,49
2018-01-11T11:50:00.256Z,49.3
2018-01-11T11:51:01.884Z,49
2018-01-11T11:52:03.506Z,49
2018-01-11T11:53:05.417Z,49.1
2018-01-11T11:54:06.740Z,49.2
2018-01-11T11:55:08.075Z,49.4
2018-01-11T11:56:09.706Z,49.1
2018-01-11T11:57:10.749Z,49.1
2018-01-11T11:58:12.344Z,49.2
2018-01-11T11:59:13.940Z,49.1
2018-01-11T12:00:15.555Z,48.6
2018-01-11T12:01:17.173Z,49.1
2018-01-11T12:02:18.217Z,49.1
2018-01-11T12:03:20.117Z,49.3
2018-01-11T12:04:21.715Z,49.4
2018-01-11T12:05:23.337Z,48.6
2018-01-11T12:06:24.957Z,48.6
2018-01-11T12:07:26.279Z,49
2018-01-11T12:08:27.899Z,48.7
2018-01-11T12:09:29.796Z,49.4
2018-01-11T12:10:31.124Z,48.8
2018-01-11T12:11:32.717Z,49
2018-01-11T12:12:34.046Z,48.9
2018-01-11T12:13:35.366Z,48.8
2018-01-11T12:14:36.692Z,48.8
2018-01-11T12:15:38.318Z,49.2
2018-01-11T12:16:40.220Z,48.8
2018-01-11T12:17:42.119Z,49
2018-01-11T12:18:44.020Z,48.9
2018-01-11T12:19:45.916Z,48.4
2018-01-11T12:20:47.241Z,48.4
2018-01-11T12:21:48.842Z,48.5
2018-01-11T12:22:50.740Z,48.4
2018-01-11T12:23:52.368Z,48.6
2018-01-11T12:24:53.695Z,48.4
2018-01-11T12:25:55.596Z,48.6
2018-01-11T12:26:57.193Z,48.6
2018-01-11T12:27:59.112Z,48.8
2018-01-11T12:29:00.435Z,48.5
2018-01-11T12:30:01.479Z,48.6
2018-01-11T12:31:03.123Z,48.6
2018-01-11T12:32:04.168Z,48.7
2018-01-11T12:33:06.063Z,49
2018-01-11T12:34:07.107Z,48.7
2018-01-11T12:35:08.428Z,48.6
2018-01-11T12:36:10.053Z,48.6
2018-01-11T12:37:11.671Z,48.6
2018-01-11T12:38:13.294Z,49
2018-01-11T12:39:14.913Z,48.5
2018-01-11T12:40:16.237Z,48.6
2018-01-11T12:41:17.867Z,48.8
2018-01-11T12:42:19.489Z,49.3
2018-01-11T12:43:21.111Z,48.7
2018-01-11T12:44:23.007Z,48.8
2018-01-11T12:45:24.719Z,48.6
2018-01-11T12:46:27.085Z,48.7
2018-01-11T12:47:28.714Z,48.6
2018-01-11T12:48:30.615Z,48.9
2018-01-11T12:49:31.938Z,48.7
2018-01-11T12:50:33.554Z,48.7
2018-01-11T12:51:35.173Z,49.2
2018-01-11T12:52:36.776Z,48.6
2018-01-11T12:53:38.392Z,48.6
2018-01-11T12:54:40.290Z,48.8
2018-01-11T12:55:41.912Z,48.6
2018-01-11T12:56:42.954Z,48.4
2018-01-11T12:57:44.897Z,48.6
2018-01-11T12:58:46.791Z,48.7
2018-01-11T12:59:48.693Z,49.1
2018-01-11T13:00:50.309Z,49.1
2018-01-11T13:01:51.927Z,48.6
2018-01-11T13:02:53.545Z,48.7
2018-01-11T13:03:55.448Z,48.5
2018-01-11T13:04:57.044Z,48.5
2018-01-11T13:05:58.941Z,49
2018-01-11T13:07:00.542Z,48.7
2018-01-11T13:08:02.166Z,48.6
2018-01-11T13:09:03.769Z,49.1
2018-01-11T13:10:05.113Z,49.3
2018-01-11T13:11:06.186Z,49.2
2018-01-11T13:12:07.808Z,49.2
2018-01-11T13:13:09.703Z,48.6
2018-01-11T13:14:11.047Z,48.6
2018-01-11T13:15:12.391Z,49.1
2018-01-11T13:16:13.432Z,48.9
2018-01-11T13:17:15.053Z,48.6
2018-01-11T13:18:16.398Z,49
2018-01-11T13:19:17.443Z,48.8
2018-01-11T13:20:18.494Z,48.6
2018-01-11T13:21:20.390Z,49.1
2018-01-11T13:22:21.719Z,48.5
2018-01-11T13:23:23.339Z,48.8
2018-01-11T13:24:24.685Z,49.3
2018-01-11T13:25:26.031Z,48.7
2018-01-11T13:26:27.650Z,48.6
2018-01-11T13:27:28.972Z,49
2018-01-11T13:28:30.875Z,49
2018-01-11T13:29:32.495Z,48.4
2018-01-11T13:30:33.540Z,48.6
2018-01-11T13:31:35.444Z,48.5
2018-01-11T13:32:36.837Z,48.6
2018-01-11T13:33:38.258Z,49.4
2018-01-11T13:34:39.625Z,48.8
2018-01-11T13:35:40.971Z,48.8
2018-01-11T13:36:42.314Z,48.6
2018-01-11T13:37:43.938Z,49.3
2018-01-11T13:38:45.549Z,49.1
2018-01-11T13:39:47.216Z,48.6
2018-01-11T13:40:48.259Z,49.2
2018-01-11T13:41:50.156Z,49.1
2018-01-11T13:42:51.824Z,48.9